createdAt,value
2023-02-04T00:00:00.000Z,98008
2023-02-04T00:05:00.000Z,97994
2023-02-04T00:10:00.000Z,97994
2023-02-04T00:15:00.000Z,98002
2023-02-04T00:20:00.000Z,98001
2023-02-04T00:25:00.000Z,98002
2023-02-04T00:30:00.000Z,98004
2023-02-04T00:35:00.000Z,98004
2023-02-04T00:55:00.000Z,97995
2023-02-04T01:00:00.000Z,98010
2023-02-04T01:05:00.000Z,97998
2023-02-04T01:10:00.000Z,98010
2023-02-04T01:15:00.000Z,98018
2023-02-04T01:20:00.000Z,98008
2023-02-04T01:25:00.000Z,98016
2023-02-04T01:30:00.000Z,98014
2023-02-04T01:35:00.000Z,98019
2023-02-04T01:40:00.000Z,98014
2023-02-04T01:45:00.000Z,98002
2023-02-04T01:50:00.000Z,98008
2023-02-04T01:55:00.000Z,98002
2023-02-04T02:00:00.000Z,98008
2023-02-04T02:05:00.000Z,98007
2023-02-04T02:10:00.000Z,97995
2023-02-04T02:15:15.000Z,97987
2023-02-04T02:20:00.000Z,97969
2023-02-04T02:25:00.000Z,97951
2023-02-04T02:30:00.000Z,97954
2023-02-04T02:35:00.000Z,97945
2023-02-04T02:40:15.000Z,97963
2023-02-04T02:45:00.000Z,97968
2023-02-04T02:50:00.000Z,97954
2023-02-04T02:55:00.000Z,97956
2023-02-04T03:00:15.000Z,97946
2023-02-04T03:04:45.000Z,97938
2023-02-04T03:10:00.000Z,97952
2023-02-04T03:15:00.000Z,97938
2023-02-04T03:20:00.000Z,97943
2023-02-04T03:25:00.000Z,97951
2023-02-04T03:30:00.000Z,97955
2023-02-04T03:35:00.000Z,97967
2023-02-04T03:40:00.000Z,97967
2023-02-04T03:45:00.000Z,97965
2023-02-04T03:50:00.000Z,97960
2023-02-04T03:55:01.000Z,97972
2023-02-04T04:00:01.000Z,97974
2023-02-04T04:05:01.000Z,97997
2023-02-04T04:10:01.000Z,98003
2023-02-04T04:15:01.000Z,97994
2023-02-04T04:20:01.000Z,97987
2023-02-04T04:25:01.000Z,97994
2023-02-04T04:30:01.000Z,97979
2023-02-04T04:35:01.000Z,97996
2023-02-04T04:40:01.000Z,97970
2023-02-04T04:45:01.000Z,97974
2023-02-04T04:50:01.000Z,97978
2023-02-04T04:55:01.000Z,97980
2023-02-04T05:00:01.000Z,97969
2023-02-04T05:05:01.000Z,97980
2023-02-04T05:10:01.000Z,97967
2023-02-04T05:15:01.000Z,97955
2023-02-04T05:20:01.000Z,97961
2023-02-04T05:25:01.000Z,97961
2023-02-04T05:30:01.000Z,97966
2023-02-04T05:35:01.000Z,97966
2023-02-04T05:40:01.000Z,97973
2023-02-04T05:45:01.000Z,97975
2023-02-04T05:50:01.000Z,97973
2023-02-04T05:55:01.000Z,97965
2023-02-04T06:00:01.000Z,97971
2023-02-04T06:05:01.000Z,97968
2023-02-04T06:10:01.000Z,97969
2023-02-04T06:15:01.000Z,97978
2023-02-04T06:20:01.000Z,97980
2023-02-04T06:25:01.000Z,97974
2023-02-04T06:30:01.000Z,97977
2023-02-04T06:35:01.000Z,97979
2023-02-04T06:40:01.000Z,97976
2023-02-04T06:45:01.000Z,97954
2023-02-04T06:50:01.000Z,97959
2023-02-04T06:55:01.000Z,97962
2023-02-04T07:00:01.000Z,97956
2023-02-04T07:05:01.000Z,97954
2023-02-04T07:10:01.000Z,97954
2023-02-04T07:15:01.000Z,97951
2023-02-04T07:20:01.000Z,97953
2023-02-04T07:25:01.000Z,97960
2023-02-04T07:30:01.000Z,97976
2023-02-04T07:35:01.000Z,97977
2023-02-04T07:40:01.000Z,97984
2023-02-04T07:45:01.000Z,97988
2023-02-04T07:50:01.000Z,97997
2023-02-04T07:55:01.000Z,97998
2023-02-04T08:00:01.000Z,97993
2023-02-04T08:05:01.000Z,97996
2023-02-04T08:10:01.000Z,97997
2023-02-04T08:15:01.000Z,97996
2023-02-04T08:20:01.000Z,98002
2023-02-04T08:25:01.000Z,98007
2023-02-04T08:30:01.000Z,98002
2023-02-04T08:35:01.000Z,98002
2023-02-04T08:40:01.000Z,97994
2023-02-04T08:45:01.000Z,98002
2023-02-04T08:50:01.000Z,97997
2023-02-04T08:55:01.000Z,97999
2023-02-04T09:00:01.000Z,98008
2023-02-04T09:05:01.000Z,98012
2023-02-04T09:10:01.000Z,98017
2023-02-04T09:15:01.000Z,98017
2023-02-04T09:20:01.000Z,98028
2023-02-04T09:25:01.000Z,98029
2023-02-04T09:30:01.000Z,98022
2023-02-04T09:35:01.000Z,98035
2023-02-04T09:40:01.000Z,98040
2023-02-04T09:45:01.000Z,98035
2023-02-04T09:50:01.000Z,98046
2023-02-04T09:55:01.000Z,98051
2023-02-04T10:00:01.000Z,98054
2023-02-04T10:05:01.000Z,98052
2023-02-04T10:10:01.000Z,98062
2023-02-04T10:15:01.000Z,98069
2023-02-04T10:20:01.000Z,98055
2023-02-04T10:25:01.000Z,98058
2023-02-04T10:30:01.000Z,98063
2023-02-04T10:35:01.000Z,98068
2023-02-04T10:40:01.000Z,98051
2023-02-04T10:45:01.000Z,98058
2023-02-04T10:50:01.000Z,98045
2023-02-04T10:55:01.000Z,98042
2023-02-04T11:00:01.000Z,98039
2023-02-04T11:05:01.000Z,98029
2023-02-04T11:10:01.000Z,98033
2023-02-04T11:15:01.000Z,98026
2023-02-04T11:20:01.000Z,98025
2023-02-04T11:25:01.000Z,98025
2023-02-04T11:30:01.000Z,98035
2023-02-04T11:35:01.000Z,98030
2023-02-04T11:40:01.000Z,98028
2023-02-04T11:45:01.000Z,98035
2023-02-04T11:50:01.000Z,98040
2023-02-04T11:55:01.000Z,98052
2023-02-04T12:00:01.000Z,98044
2023-02-04T12:05:01.000Z,98048
2023-02-04T12:10:01.000Z,98048
2023-02-04T12:15:01.000Z,98041
2023-02-04T12:20:01.000Z,98044
2023-02-04T12:25:01.000Z,98044
2023-02-04T12:30:01.000Z,98036
2023-02-04T12:35:01.000Z,98042
2023-02-04T12:40:01.000Z,98041
2023-02-04T12:45:01.000Z,98039
2023-02-04T12:50:01.000Z,98045
2023-02-04T12:55:01.000Z,98046
2023-02-04T13:00:01.000Z,98041
2023-02-04T13:05:01.000Z,98046
2023-02-04T13:10:01.000Z,98046
2023-02-04T13:15:01.000Z,98043
2023-02-04T13:20:01.000Z,98043
2023-02-04T13:25:01.000Z,98039
2023-02-04T13:30:01.000Z,98038
2023-02-04T13:35:01.000Z,98039
2023-02-04T13:40:01.000Z,98044
2023-02-04T13:45:01.000Z,98044
2023-02-04T13:50:01.000Z,98063
2023-02-04T13:55:01.000Z,98067
2023-02-04T14:00:01.000Z,98069
2023-02-04T14:05:01.000Z,98075
2023-02-04T14:10:01.000Z,98085
2023-02-04T14:15:01.000Z,98095
2023-02-04T14:20:01.000Z,98082
2023-02-04T14:25:01.000Z,98087
2023-02-04T14:30:01.000Z,98093
2023-02-04T14:35:01.000Z,98085
2023-02-04T14:40:01.000Z,98088
2023-02-04T14:45:01.000Z,98090
2023-02-04T14:50:01.000Z,98085
2023-02-04T14:55:01.000Z,98090
2023-02-04T15:00:01.000Z,98095
2023-02-04T15:05:01.000Z,98098
2023-02-04T15:10:01.000Z,98098
2023-02-04T15:15:01.000Z,98090
2023-02-04T15:20:01.000Z,98087
2023-02-04T15:25:01.000Z,98104
2023-02-04T15:30:01.000Z,98100
2023-02-04T15:35:01.000Z,98103
2023-02-04T15:40:01.000Z,98105
2023-02-04T15:45:01.000Z,98100
2023-02-04T15:50:01.000Z,98117
2023-02-04T15:55:01.000Z,98121
2023-02-04T16:00:01.000Z,98115
2023-02-04T16:05:01.000Z,98115
2023-02-04T16:10:01.000Z,98123
2023-02-04T16:15:01.000Z,98114
2023-02-04T16:20:01.000Z,98121
2023-02-04T16:25:01.000Z,98128
2023-02-04T16:30:01.000Z,98133
2023-02-04T16:35:01.000Z,98137
2023-02-04T16:40:01.000Z,98143
2023-02-04T16:45:01.000Z,98150
2023-02-04T16:50:01.000Z,98154
2023-02-04T16:55:01.000Z,98151
2023-02-04T17:00:01.000Z,98147
2023-02-04T17:05:01.000Z,98151
2023-02-04T17:10:01.000Z,98156
2023-02-04T17:15:01.000Z,98158
2023-02-04T17:20:01.000Z,98172
2023-02-04T17:25:01.000Z,98172
2023-02-04T17:30:01.000Z,98151
2023-02-04T17:35:01.000Z,98160
2023-02-04T17:40:01.000Z,98161
2023-02-04T17:45:01.000Z,98161
2023-02-04T17:50:01.000Z,98176
2023-02-04T17:55:01.000Z,98185
2023-02-04T18:00:01.000Z,98182
2023-02-04T18:05:01.000Z,98197
2023-02-04T18:10:01.000Z,98200
2023-02-04T18:15:01.000Z,98201
2023-02-04T18:20:01.000Z,98203
2023-02-04T18:25:01.000Z,98188
2023-02-04T18:30:01.000Z,98198
2023-02-04T18:35:01.000Z,98209
2023-02-04T18:40:01.000Z,98206
2023-02-04T18:45:01.000Z,98210
2023-02-04T18:50:01.000Z,98221
2023-02-04T18:55:01.000Z,98223
2023-02-04T19:00:01.000Z,98216
2023-02-04T19:05:01.000Z,98223
2023-02-04T19:10:01.000Z,98221
2023-02-04T19:15:01.000Z,98222
2023-02-04T19:20:01.000Z,98214
2023-02-04T19:25:01.000Z,98224
2023-02-04T19:30:01.000Z,98225
2023-02-04T19:35:01.000Z,98220
2023-02-04T19:40:01.000Z,98216
2023-02-04T19:45:01.000Z,98215
2023-02-04T19:50:01.000Z,98215
2023-02-04T19:55:01.000Z,98220
2023-02-04T20:00:01.000Z,98236
2023-02-04T20:05:01.000Z,98226
2023-02-04T20:10:01.000Z,98230
2023-02-04T20:15:01.000Z,98238
2023-02-04T20:20:01.000Z,98243
2023-02-04T20:25:01.000Z,98258
2023-02-04T20:30:01.000Z,98255
2023-02-04T20:35:01.000Z,98257
2023-02-04T20:40:01.000Z,98256
2023-02-04T20:45:01.000Z,98250
2023-02-04T20:50:01.000Z,98253
2023-02-04T20:55:01.000Z,98253
2023-02-04T21:00:01.000Z,98254
2023-02-04T21:05:01.000Z,98242
2023-02-04T21:10:01.000Z,98250
2023-02-04T21:15:01.000Z,98258
2023-02-04T21:20:01.000Z,98252
2023-02-04T21:25:01.000Z,98273
2023-02-04T21:30:01.000Z,98275
2023-02-04T21:35:01.000Z,98270
2023-02-04T21:40:01.000Z,98271
2023-02-04T21:45:01.000Z,98265
2023-02-04T21:50:01.000Z,98276
2023-02-04T21:55:01.000Z,98280
2023-02-04T22:00:01.000Z,98274
2023-02-04T22:05:01.000Z,98283
2023-02-04T22:10:01.000Z,98280
2023-02-04T22:15:01.000Z,98279
2023-02-04T22:20:01.000Z,98286
2023-02-04T22:25:01.000Z,98267
2023-02-04T22:30:01.000Z,98266
2023-02-04T22:35:01.000Z,98271
2023-02-04T22:40:01.000Z,98272
2023-02-04T22:45:01.000Z,98261
2023-02-04T22:50:01.000Z,98266
2023-02-04T22:55:02.000Z,98268
2023-02-04T23:00:01.000Z,98263
2023-02-04T23:05:02.000Z,98278
2023-02-04T23:10:02.000Z,98278
2023-02-04T23:15:02.000Z,98284
2023-02-04T23:20:02.000Z,98274
2023-02-04T23:25:02.000Z,98282
2023-02-04T23:30:02.000Z,98287
2023-02-04T23:35:02.000Z,98281
2023-02-04T23:40:02.000Z,98287
2023-02-04T23:45:02.000Z,98279
2023-02-04T23:50:02.000Z,98273
2023-02-04T23:55:02.000Z,98271
